sensor_id;sensor_type;location;lat;lon;timestamp;P1;durP1;ratioP1;P2;durP2;ratioP2
80175;SDS011;75462;42.122;24.736;2024-03-08T00:01:09;0.40;;;0.40;;
80175;SDS011;75462;42.122;24.736;2024-03-08T00:03:35;0.40;;;0.40;;
80175;SDS011;75462;42.122;24.736;2024-03-08T00:06:01;0.40;;;0.40;;
80175;SDS011;75462;42.122;24.736;2024-03-08T00:08:27;0.35;;;0.35;;
80175;SDS011;75462;42.122;24.736;2024-03-08T00:10:53;0.40;;;0.40;;
80175;SDS011;75462;42.122;24.736;2024-03-08T00:13:19;0.40;;;0.40;;
80175;SDS011;75462;42.122;24.736;2024-03-08T00:15:44;0.40;;;0.40;;
80175;SDS011;75462;42.122;24.736;2024-03-08T00:18:10;0.40;;;0.40;;
80175;SDS011;75462;42.122;24.736;2024-03-08T00:20:36;0.40;;;0.40;;
80175;SDS011;75462;42.122;24.736;2024-03-08T00:23:02;0.40;;;0.40;;
80175;SDS011;75462;42.122;24.736;2024-03-08T00:25:28;0.40;;;0.40;;
80175;SDS011;75462;42.122;24.736;2024-03-08T00:27:53;0.40;;;0.40;;
80175;SDS011;75462;42.122;24.736;2024-03-08T00:30:22;0.40;;;0.40;;
80175;SDS011;75462;42.122;24.736;2024-03-08T00:32:50;0.40;;;0.40;;
80175;SDS011;75462;42.122;24.736;2024-03-08T00:35:15;0.40;;;0.40;;
80175;SDS011;75462;42.122;24.736;2024-03-08T00:37:41;0.40;;;0.40;;
80175;SDS011;75462;42.122;24.736;2024-03-08T00:40:07;0.40;;;0.40;;
80175;SDS011;75462;42.122;24.736;2024-03-08T00:42:34;0.40;;;0.40;;
80175;SDS011;75462;42.122;24.736;2024-03-08T00:45:00;0.40;;;0.40;;
80175;SDS011;75462;42.122;24.736;2024-03-08T00:47:26;0.40;;;0.40;;
80175;SDS011;75462;42.122;24.736;2024-03-08T00:49:52;0.40;;;0.40;;
80175;SDS011;75462;42.122;24.736;2024-03-08T00:52:18;0.40;;;0.40;;
80175;SDS011;75462;42.122;24.736;2024-03-08T00:54:44;0.40;;;0.40;;
80175;SDS011;75462;42.122;24.736;2024-03-08T00:57:10;0.40;;;0.40;;
80175;SDS011;75462;42.122;24.736;2024-03-08T00:59:39;0.40;;;0.40;;
80175;SDS011;75462;42.122;24.736;2024-03-08T01:02:05;0.40;;;0.40;;
80175;SDS011;75462;42.122;24.736;2024-03-08T01:04:31;0.40;;;0.40;;
80175;SDS011;75462;42.122;24.736;2024-03-08T01:06:58;0.40;;;0.40;;
80175;SDS011;75462;42.122;24.736;2024-03-08T01:09:24;0.40;;;0.40;;
80175;SDS011;75462;42.122;24.736;2024-03-08T01:11:52;0.40;;;0.40;;
80175;SDS011;75462;42.122;24.736;2024-03-08T01:14:19;0.40;;;0.40;;
80175;SDS011;75462;42.122;24.736;2024-03-08T01:16:48;0.40;;;0.40;;
80175;SDS011;75462;42.122;24.736;2024-03-08T01:19:14;0.40;;;0.40;;
80175;SDS011;75462;42.122;24.736;2024-03-08T01:21:40;0.40;;;0.40;;
80175;SDS011;75462;42.122;24.736;2024-03-08T01:24:06;0.40;;;0.40;;
80175;SDS011;75462;42.122;24.736;2024-03-08T01:26:32;0.40;;;0.40;;
80175;SDS011;75462;42.122;24.736;2024-03-08T01:29:01;0.40;;;0.40;;
80175;SDS011;75462;42.122;24.736;2024-03-08T01:31:30;0.40;;;0.40;;
80175;SDS011;75462;42.122;24.736;2024-03-08T01:33:59;0.40;;;0.40;;
80175;SDS011;75462;42.122;24.736;2024-03-08T01:36:25;0.40;;;0.40;;
80175;SDS011;75462;42.122;24.736;2024-03-08T01:38:51;0.40;;;0.40;;
80175;SDS011;75462;42.122;24.736;2024-03-08T01:41:17;0.40;;;0.40;;
80175;SDS011;75462;42.122;24.736;2024-03-08T01:43:43;0.40;;;0.40;;
80175;SDS011;75462;42.122;24.736;2024-03-08T01:46:10;0.45;;;0.45;;
80175;SDS011;75462;42.122;24.736;2024-03-08T01:48:41;0.50;;;0.50;;
80175;SDS011;75462;42.122;24.736;2024-03-08T01:51:07;0.40;;;0.40;;
80175;SDS011;75462;42.122;24.736;2024-03-08T01:53:33;0.50;;;0.50;;
80175;SDS011;75462;42.122;24.736;2024-03-08T01:56:00;0.40;;;0.40;;
80175;SDS011;75462;42.122;24.736;2024-03-08T01:58:27;0.40;;;0.40;;
80175;SDS011;75462;42.122;24.736;2024-03-08T02:00:54;0.40;;;0.40;;
80175;SDS011;75462;42.122;24.736;2024-03-08T02:03:21;0.40;;;0.40;;
80175;SDS011;75462;42.122;24.736;2024-03-08T02:05:47;0.40;;;0.40;;
80175;SDS011;75462;42.122;24.736;2024-03-08T02:08:13;0.40;;;0.40;;
80175;SDS011;75462;42.122;24.736;2024-03-08T02:10:40;0.40;;;0.40;;
80175;SDS011;75462;42.122;24.736;2024-03-08T02:13:09;0.40;;;0.40;;
80175;SDS011;75462;42.122;24.736;2024-03-08T02:15:54;0.40;;;0.40;;
80175;SDS011;75462;42.122;24.736;2024-03-08T02:18:24;0.40;;;0.40;;
80175;SDS011;75462;42.122;24.736;2024-03-08T02:20:54;0.40;;;0.40;;
80175;SDS011;75462;42.122;24.736;2024-03-08T02:23:24;0.40;;;0.40;;
80175;SDS011;75462;42.122;24.736;2024-03-08T02:25:50;0.40;;;0.40;;
80175;SDS011;75462;42.122;24.736;2024-03-08T02:28:16;0.40;;;0.40;;
80175;SDS011;75462;42.122;24.736;2024-03-08T02:30:54;0.40;;;0.40;;
80175;SDS011;75462;42.122;24.736;2024-03-08T02:33:20;0.40;;;0.40;;
80175;SDS011;75462;42.122;24.736;2024-03-08T02:35:47;0.40;;;0.40;;
80175;SDS011;75462;42.122;24.736;2024-03-08T02:38:15;0.40;;;0.40;;
80175;SDS011;75462;42.122;24.736;2024-03-08T02:40:45;0.40;;;0.40;;
80175;SDS011;75462;42.122;24.736;2024-03-08T02:43:12;0.40;;;0.40;;
80175;SDS011;75462;42.122;24.736;2024-03-08T02:45:39;0.40;;;0.40;;
80175;SDS011;75462;42.122;24.736;2024-03-08T02:48:07;0.50;;;0.50;;
80175;SDS011;75462;42.122;24.736;2024-03-08T02:50:33;0.40;;;0.40;;
80175;SDS011;75462;42.122;24.736;2024-03-08T02:53:03;0.40;;;0.40;;
80175;SDS011;75462;42.122;24.736;2024-03-08T02:55:29;0.40;;;0.40;;
80175;SDS011;75462;42.122;24.736;2024-03-08T02:57:55;0.40;;;0.40;;
80175;SDS011;75462;42.122;24.736;2024-03-08T03:00:22;0.40;;;0.40;;
80175;SDS011;75462;42.122;24.736;2024-03-08T03:02:48;0.40;;;0.40;;
80175;SDS011;75462;42.122;24.736;2024-03-08T03:05:19;0.40;;;0.40;;
80175;SDS011;75462;42.122;24.736;2024-03-08T03:07:47;0.40;;;0.40;;
80175;SDS011;75462;42.122;24.736;2024-03-08T03:10:13;0.40;;;0.40;;
80175;SDS011;75462;42.122;24.736;2024-03-08T03:12:42;0.40;;;0.40;;
80175;SDS011;75462;42.122;24.736;2024-03-08T03:15:08;0.40;;;0.40;;
80175;SDS011;75462;42.122;24.736;2024-03-08T03:17:35;0.40;;;0.40;;
80175;SDS011;75462;42.122;24.736;2024-03-08T03:20:00;0.40;;;0.40;;
80175;SDS011;75462;42.122;24.736;2024-03-08T03:22:34;0.40;;;0.40;;
80175;SDS011;75462;42.122;24.736;2024-03-08T03:25:02;0.40;;;0.40;;
80175;SDS011;75462;42.122;24.736;2024-03-08T03:27:31;0.40;;;0.40;;
80175;SDS011;75462;42.122;24.736;2024-03-08T03:29:57;0.40;;;0.40;;
80175;SDS011;75462;42.122;24.736;2024-03-08T03:32:23;0.50;;;0.50;;
80175;SDS011;75462;42.122;24.736;2024-03-08T03:34:49;0.40;;;0.40;;
80175;SDS011;75462;42.122;24.736;2024-03-08T03:37:18;0.40;;;0.40;;
80175;SDS011;75462;42.122;24.736;2024-03-08T03:39:44;0.40;;;0.40;;
80175;SDS011;75462;42.122;24.736;2024-03-08T03:42:17;0.40;;;0.40;;
80175;SDS011;75462;42.122;24.736;2024-03-08T03:44:46;0.40;;;0.40;;
80175;SDS011;75462;42.122;24.736;2024-03-08T03:47:13;0.40;;;0.40;;
80175;SDS011;75462;42.122;24.736;2024-03-08T03:49:39;0.50;;;0.50;;
80175;SDS011;75462;42.122;24.736;2024-03-08T03:52:05;0.40;;;0.40;;
80175;SDS011;75462;42.122;24.736;2024-03-08T03:54:31;0.40;;;0.40;;
80175;SDS011;75462;42.122;24.736;2024-03-08T03:56:58;0.50;;;0.50;;
80175;SDS011;75462;42.122;24.736;2024-03-08T03:59:23;0.40;;;0.40;;
80175;SDS011;75462;42.122;24.736;2024-03-08T04:01:49;0.47;;;0.47;;
80175;SDS011;75462;42.122;24.736;2024-03-08T04:04:15;0.40;;;0.40;;
80175;SDS011;75462;42.122;24.736;2024-03-08T04:06:41;0.40;;;0.40;;
80175;SDS011;75462;42.122;24.736;2024-03-08T04:09:07;0.40;;;0.40;;
80175;SDS011;75462;42.122;24.736;2024-03-08T04:11:33;0.40;;;0.40;;
80175;SDS011;75462;42.122;24.736;2024-03-08T04:13:59;0.40;;;0.40;;
80175;SDS011;75462;42.122;24.736;2024-03-08T04:16:24;0.50;;;0.50;;
80175;SDS011;75462;42.122;24.736;2024-03-08T04:18:51;0.45;;;0.45;;
80175;SDS011;75462;42.122;24.736;2024-03-08T04:21:17;0.50;;;0.50;;
80175;SDS011;75462;42.122;24.736;2024-03-08T04:23:44;0.40;;;0.40;;
80175;SDS011;75462;42.122;24.736;2024-03-08T04:26:10;0.40;;;0.40;;
80175;SDS011;75462;42.122;24.736;2024-03-08T04:28:36;0.40;;;0.40;;
80175;SDS011;75462;42.122;24.736;2024-03-08T04:31:02;0.40;;;0.40;;
80175;SDS011;75462;42.122;24.736;2024-03-08T04:33:29;0.40;;;0.40;;
80175;SDS011;75462;42.122;24.736;2024-03-08T04:35:54;0.40;;;0.40;;
80175;SDS011;75462;42.122;24.736;2024-03-08T04:38:20;0.50;;;0.50;;
80175;SDS011;75462;42.122;24.736;2024-03-08T04:40:46;0.40;;;0.40;;
80175;SDS011;75462;42.122;24.736;2024-03-08T04:43:12;0.40;;;0.40;;
80175;SDS011;75462;42.122;24.736;2024-03-08T04:45:39;0.50;;;0.50;;
80175;SDS011;75462;42.122;24.736;2024-03-08T04:48:06;0.43;;;0.43;;
80175;SDS011;75462;42.122;24.736;2024-03-08T04:50:33;0.40;;;0.40;;
80175;SDS011;75462;42.122;24.736;2024-03-08T04:52:59;0.40;;;0.40;;
80175;SDS011;75462;42.122;24.736;2024-03-08T04:55:25;0.40;;;0.40;;
80175;SDS011;75462;42.122;24.736;2024-03-08T04:57:50;0.43;;;0.43;;
80175;SDS011;75462;42.122;24.736;2024-03-08T05:00:16;0.50;;;0.50;;
80175;SDS011;75462;42.122;24.736;2024-03-08T05:02:42;0.40;;;0.40;;
80175;SDS011;75462;42.122;24.736;2024-03-08T05:05:09;0.40;;;0.40;;
80175;SDS011;75462;42.122;24.736;2024-03-08T05:07:37;0.50;;;0.50;;
80175;SDS011;75462;42.122;24.736;2024-03-08T05:10:04;0.50;;;0.50;;
80175;SDS011;75462;42.122;24.736;2024-03-08T05:12:31;0.40;;;0.40;;
80175;SDS011;75462;42.122;24.736;2024-03-08T05:14:57;0.50;;;0.50;;
80175;SDS011;75462;42.122;24.736;2024-03-08T05:17:23;0.40;;;0.40;;
80175;SDS011;75462;42.122;24.736;2024-03-08T05:19:49;0.40;;;0.40;;
80175;SDS011;75462;42.122;24.736;2024-03-08T05:22:16;0.40;;;0.40;;
80175;SDS011;75462;42.122;24.736;2024-03-08T05:24:42;0.40;;;0.40;;
80175;SDS011;75462;42.122;24.736;2024-03-08T05:27:08;0.40;;;0.40;;
80175;SDS011;75462;42.122;24.736;2024-03-08T05:29:34;0.40;;;0.40;;
80175;SDS011;75462;42.122;24.736;2024-03-08T05:32:00;0.50;;;0.50;;
80175;SDS011;75462;42.122;24.736;2024-03-08T05:34:26;0.45;;;0.45;;
80175;SDS011;75462;42.122;24.736;2024-03-08T05:36:53;0.40;;;0.40;;
80175;SDS011;75462;42.122;24.736;2024-03-08T05:39:19;0.40;;;0.40;;
80175;SDS011;75462;42.122;24.736;2024-03-08T05:41:45;0.38;;;0.38;;
80175;SDS011;75462;42.122;24.736;2024-03-08T05:44:12;0.40;;;0.40;;
80175;SDS011;75462;42.122;24.736;2024-03-08T05:46:38;0.40;;;0.40;;
80175;SDS011;75462;42.122;24.736;2024-03-08T05:49:05;0.50;;;0.50;;
80175;SDS011;75462;42.122;24.736;2024-03-08T05:51:32;0.50;;;0.50;;
80175;SDS011;75462;42.122;24.736;2024-03-08T05:54:00;0.50;;;0.50;;
80175;SDS011;75462;42.122;24.736;2024-03-08T05:56:27;0.50;;;0.50;;
80175;SDS011;75462;42.122;24.736;2024-03-08T05:58:54;0.40;;;0.40;;
80175;SDS011;75462;42.122;24.736;2024-03-08T06:01:19;0.40;;;0.40;;
80175;SDS011;75462;42.122;24.736;2024-03-08T06:03:46;0.50;;;0.50;;
80175;SDS011;75462;42.122;24.736;2024-03-08T06:06:14;0.40;;;0.40;;
80175;SDS011;75462;42.122;24.736;2024-03-08T06:08:40;0.40;;;0.40;;
80175;SDS011;75462;42.122;24.736;2024-03-08T06:11:08;0.40;;;0.40;;
80175;SDS011;75462;42.122;24.736;2024-03-08T06:13:34;0.50;;;0.50;;
80175;SDS011;75462;42.122;24.736;2024-03-08T06:16:00;0.40;;;0.40;;
80175;SDS011;75462;42.122;24.736;2024-03-08T06:18:29;0.40;;;0.40;;
80175;SDS011;75462;42.122;24.736;2024-03-08T06:20:55;0.40;;;0.40;;
80175;SDS011;75462;42.122;24.736;2024-03-08T06:23:21;0.40;;;0.40;;
80175;SDS011;75462;42.122;24.736;2024-03-08T06:25:47;0.40;;;0.40;;
80175;SDS011;75462;42.122;24.736;2024-03-08T06:28:13;0.50;;;0.50;;
80175;SDS011;75462;42.122;24.736;2024-03-08T06:30:39;0.40;;;0.40;;
80175;SDS011;75462;42.122;24.736;2024-03-08T06:33:05;0.40;;;0.40;;
80175;SDS011;75462;42.122;24.736;2024-03-08T06:35:32;0.40;;;0.40;;
80175;SDS011;75462;42.122;24.736;2024-03-08T06:37:58;0.40;;;0.40;;
80175;SDS011;75462;42.122;24.736;2024-03-08T06:40:24;0.40;;;0.40;;
80175;SDS011;75462;42.122;24.736;2024-03-08T06:42:49;0.40;;;0.40;;
80175;SDS011;75462;42.122;24.736;2024-03-08T06:45:17;0.40;;;0.40;;
80175;SDS011;75462;42.122;24.736;2024-03-08T06:47:46;0.40;;;0.40;;
80175;SDS011;75462;42.122;24.736;2024-03-08T06:50:12;0.50;;;0.50;;
80175;SDS011;75462;42.122;24.736;2024-03-08T06:52:38;0.50;;;0.50;;
80175;SDS011;75462;42.122;24.736;2024-03-08T06:55:05;0.40;;;0.40;;
80175;SDS011;75462;42.122;24.736;2024-03-08T06:57:31;0.50;;;0.50;;
80175;SDS011;75462;42.122;24.736;2024-03-08T06:59:57;0.40;;;0.40;;
80175;SDS011;75462;42.122;24.736;2024-03-08T07:02:23;0.47;;;0.47;;
80175;SDS011;75462;42.122;24.736;2024-03-08T07:04:52;0.40;;;0.40;;
80175;SDS011;75462;42.122;24.736;2024-03-08T07:07:18;0.50;;;0.50;;
80175;SDS011;75462;42.122;24.736;2024-03-08T07:09:45;0.40;;;0.40;;
80175;SDS011;75462;42.122;24.736;2024-03-08T07:12:11;0.40;;;0.40;;
80175;SDS011;75462;42.122;24.736;2024-03-08T07:14:38;0.50;;;0.50;;
80175;SDS011;75462;42.122;24.736;2024-03-08T07:17:07;0.40;;;0.40;;
80175;SDS011;75462;42.122;24.736;2024-03-08T07:19:36;0.40;;;0.40;;
80175;SDS011;75462;42.122;24.736;2024-03-08T07:22:03;0.45;;;0.45;;
80175;SDS011;75462;42.122;24.736;2024-03-08T07:24:30;0.40;;;0.40;;
80175;SDS011;75462;42.122;24.736;2024-03-08T07:27:20;0.43;;;0.43;;
80175;SDS011;75462;42.122;24.736;2024-03-08T07:29:46;0.40;;;0.40;;
80175;SDS011;75462;42.122;24.736;2024-03-08T07:32:12;0.40;;;0.40;;
80175;SDS011;75462;42.122;24.736;2024-03-08T07:34:48;0.40;;;0.40;;
80175;SDS011;75462;42.122;24.736;2024-03-08T07:37:15;0.50;;;0.50;;
80175;SDS011;75462;42.122;24.736;2024-03-08T07:39:41;0.40;;;0.40;;
80175;SDS011;75462;42.122;24.736;2024-03-08T07:42:08;0.40;;;0.40;;
80175;SDS011;75462;42.122;24.736;2024-03-08T07:44:35;0.40;;;0.40;;
80175;SDS011;75462;42.122;24.736;2024-03-08T07:47:01;0.50;;;0.50;;
80175;SDS011;75462;42.122;24.736;2024-03-08T07:49:28;0.50;;;0.50;;
80175;SDS011;75462;42.122;24.736;2024-03-08T07:51:55;0.40;;;0.40;;
80175;SDS011;75462;42.122;24.736;2024-03-08T07:54:24;0.40;;;0.40;;
80175;SDS011;75462;42.122;24.736;2024-03-08T07:56:50;0.50;;;0.50;;
80175;SDS011;75462;42.122;24.736;2024-03-08T07:59:17;0.40;;;0.40;;
80175;SDS011;75462;42.122;24.736;2024-03-08T08:01:43;0.40;;;0.40;;
80175;SDS011;75462;42.122;24.736;2024-03-08T08:04:09;0.40;;;0.40;;
80175;SDS011;75462;42.122;24.736;2024-03-08T08:06:38;0.40;;;0.40;;
80175;SDS011;75462;42.122;24.736;2024-03-08T08:09:06;0.40;;;0.40;;
80175;SDS011;75462;42.122;24.736;2024-03-08T08:11:39;0.40;;;0.40;;
80175;SDS011;75462;42.122;24.736;2024-03-08T08:14:11;0.40;;;0.40;;
80175;SDS011;75462;42.122;24.736;2024-03-08T08:16:37;0.43;;;0.43;;
80175;SDS011;75462;42.122;24.736;2024-03-08T08:19:03;0.40;;;0.40;;
80175;SDS011;75462;42.122;24.736;2024-03-08T08:21:33;0.40;;;0.40;;
80175;SDS011;75462;42.122;24.736;2024-03-08T08:24:02;0.40;;;0.40;;
80175;SDS011;75462;42.122;24.736;2024-03-08T08:26:29;0.50;;;0.50;;
80175;SDS011;75462;42.122;24.736;2024-03-08T08:28:55;0.40;;;0.40;;
80175;SDS011;75462;42.122;24.736;2024-03-08T08:31:20;0.40;;;0.40;;
80175;SDS011;75462;42.122;24.736;2024-03-08T08:33:46;0.40;;;0.40;;
80175;SDS011;75462;42.122;24.736;2024-03-08T08:36:14;0.40;;;0.40;;
80175;SDS011;75462;42.122;24.736;2024-03-08T08:38:40;0.40;;;0.40;;
80175;SDS011;75462;42.122;24.736;2024-03-08T08:41:09;0.40;;;0.40;;
80175;SDS011;75462;42.122;24.736;2024-03-08T08:43:36;0.40;;;0.40;;
80175;SDS011;75462;42.122;24.736;2024-03-08T08:46:01;0.50;;;0.50;;
80175;SDS011;75462;42.122;24.736;2024-03-08T08:48:27;0.50;;;0.50;;
80175;SDS011;75462;42.122;24.736;2024-03-08T08:50:55;0.40;;;0.40;;
80175;SDS011;75462;42.122;24.736;2024-03-08T08:53:21;0.40;;;0.40;;
80175;SDS011;75462;42.122;24.736;2024-03-08T08:55:47;0.40;;;0.40;;
80175;SDS011;75462;42.122;24.736;2024-03-08T08:58:13;0.40;;;0.40;;
80175;SDS011;75462;42.122;24.736;2024-03-08T09:00:39;0.40;;;0.40;;
80175;SDS011;75462;42.122;24.736;2024-03-08T09:03:05;0.40;;;0.40;;
80175;SDS011;75462;42.122;24.736;2024-03-08T09:05:32;0.40;;;0.40;;
80175;SDS011;75462;42.122;24.736;2024-03-08T09:07:59;0.40;;;0.40;;
80175;SDS011;75462;42.122;24.736;2024-03-08T09:10:25;0.40;;;0.40;;
80175;SDS011;75462;42.122;24.736;2024-03-08T09:12:52;0.40;;;0.40;;
80175;SDS011;75462;42.122;24.736;2024-03-08T09:15:18;0.40;;;0.40;;
80175;SDS011;75462;42.122;24.736;2024-03-08T09:17:45;0.40;;;0.40;;
80175;SDS011;75462;42.122;24.736;2024-03-08T09:20:12;0.40;;;0.40;;
80175;SDS011;75462;42.122;24.736;2024-03-08T09:22:44;0.40;;;0.40;;
80175;SDS011;75462;42.122;24.736;2024-03-08T09:25:10;0.40;;;0.40;;
80175;SDS011;75462;42.122;24.736;2024-03-08T09:27:36;0.40;;;0.40;;
80175;SDS011;75462;42.122;24.736;2024-03-08T09:30:02;0.40;;;0.40;;
80175;SDS011;75462;42.122;24.736;2024-03-08T09:32:29;0.40;;;0.40;;
80175;SDS011;75462;42.122;24.736;2024-03-08T09:34:55;0.40;;;0.40;;
80175;SDS011;75462;42.122;24.736;2024-03-08T09:37:21;0.40;;;0.40;;
80175;SDS011;75462;42.122;24.736;2024-03-08T09:39:47;0.40;;;0.40;;
80175;SDS011;75462;42.122;24.736;2024-03-08T09:42:13;0.40;;;0.40;;
80175;SDS011;75462;42.122;24.736;2024-03-08T09:44:44;0.40;;;0.40;;
80175;SDS011;75462;42.122;24.736;2024-03-08T09:47:12;0.40;;;0.40;;
80175;SDS011;75462;42.122;24.736;2024-03-08T09:49:39;0.40;;;0.40;;
80175;SDS011;75462;42.122;24.736;2024-03-08T09:52:06;0.40;;;0.40;;
80175;SDS011;75462;42.122;24.736;2024-03-08T09:54:32;0.40;;;0.40;;
80175;SDS011;75462;42.122;24.736;2024-03-08T09:56:59;0.40;;;0.40;;
80175;SDS011;75462;42.122;24.736;2024-03-08T09:59:25;0.40;;;0.40;;
80175;SDS011;75462;42.122;24.736;2024-03-08T10:01:54;0.40;;;0.40;;
80175;SDS011;75462;42.122;24.736;2024-03-08T10:04:24;0.40;;;0.40;;
80175;SDS011;75462;42.122;24.736;2024-03-08T10:06:51;0.40;;;0.40;;
80175;SDS011;75462;42.122;24.736;2024-03-08T10:09:17;0.40;;;0.40;;
80175;SDS011;75462;42.122;24.736;2024-03-08T10:11:43;0.40;;;0.40;;
80175;SDS011;75462;42.122;24.736;2024-03-08T10:14:10;0.40;;;0.40;;
80175;SDS011;75462;42.122;24.736;2024-03-08T10:16:37;0.35;;;0.35;;
80175;SDS011;75462;42.122;24.736;2024-03-08T10:19:03;0.40;;;0.40;;
80175;SDS011;75462;42.122;24.736;2024-03-08T10:21:30;0.38;;;0.38;;
80175;SDS011;75462;42.122;24.736;2024-03-08T10:23:58;0.40;;;0.40;;
80175;SDS011;75462;42.122;24.736;2024-03-08T10:26:25;0.40;;;0.40;;
80175;SDS011;75462;42.122;24.736;2024-03-08T10:28:51;0.40;;;0.40;;
80175;SDS011;75462;42.122;24.736;2024-03-08T10:31:19;0.40;;;0.40;;
80175;SDS011;75462;42.122;24.736;2024-03-08T10:33:48;0.35;;;0.35;;
80175;SDS011;75462;42.122;24.736;2024-03-08T10:36:14;0.40;;;0.40;;
80175;SDS011;75462;42.122;24.736;2024-03-08T10:38:41;0.40;;;0.40;;
80175;SDS011;75462;42.122;24.736;2024-03-08T10:41:12;0.40;;;0.40;;
80175;SDS011;75462;42.122;24.736;2024-03-08T10:43:52;0.40;;;0.40;;
80175;SDS011;75462;42.122;24.736;2024-03-08T10:46:53;0.38;;;0.38;;
80175;SDS011;75462;42.122;24.736;2024-03-08T10:49:43;0.40;;;0.40;;
80175;SDS011;75462;42.122;24.736;2024-03-08T10:52:30;0.40;;;0.40;;
80175;SDS011;75462;42.122;24.736;2024-03-08T10:54:56;0.40;;;0.40;;
80175;SDS011;75462;42.122;24.736;2024-03-08T10:57:24;0.30;;;0.30;;
80175;SDS011;75462;42.122;24.736;2024-03-08T10:59:49;0.30;;;0.30;;
80175;SDS011;75462;42.122;24.736;2024-03-08T11:02:17;0.40;;;0.40;;
80175;SDS011;75462;42.122;24.736;2024-03-08T11:04:47;0.30;;;0.30;;
80175;SDS011;75462;42.122;24.736;2024-03-08T11:07:15;0.30;;;0.30;;
80175;SDS011;75462;42.122;24.736;2024-03-08T11:09:45;0.40;;;0.40;;
80175;SDS011;75462;42.122;24.736;2024-03-08T11:14:46;0.30;;;0.30;;
80175;SDS011;75462;42.122;24.736;2024-03-08T11:17:14;0.32;;;0.32;;
80175;SDS011;75462;42.122;24.736;2024-03-08T11:19:46;0.30;;;0.30;;
80175;SDS011;75462;42.122;24.736;2024-03-08T11:22:29;0.40;;;0.40;;
80175;SDS011;75462;42.122;24.736;2024-03-08T11:25:08;0.30;;;0.30;;
80175;SDS011;75462;42.122;24.736;2024-03-08T11:27:37;0.30;;;0.30;;
80175;SDS011;75462;42.122;24.736;2024-03-08T11:30:03;0.30;;;0.30;;
80175;SDS011;75462;42.122;24.736;2024-03-08T11:32:37;0.38;;;0.38;;
80175;SDS011;75462;42.122;24.736;2024-03-08T11:35:12;0.30;;;0.30;;
80175;SDS011;75462;42.122;24.736;2024-03-08T11:37:44;0.30;;;0.30;;
80175;SDS011;75462;42.122;24.736;2024-03-08T11:40:13;0.40;;;0.40;;
80175;SDS011;75462;42.122;24.736;2024-03-08T11:42:45;0.40;;;0.40;;
80175;SDS011;75462;42.122;24.736;2024-03-08T11:45:17;0.30;;;0.30;;
80175;SDS011;75462;42.122;24.736;2024-03-08T11:47:46;0.30;;;0.30;;
80175;SDS011;75462;42.122;24.736;2024-03-08T11:50:12;0.30;;;0.30;;
80175;SDS011;75462;42.122;24.736;2024-03-08T11:52:39;0.30;;;0.30;;
80175;SDS011;75462;42.122;24.736;2024-03-08T11:55:05;0.30;;;0.30;;
80175;SDS011;75462;42.122;24.736;2024-03-08T11:57:31;0.30;;;0.30;;
80175;SDS011;75462;42.122;24.736;2024-03-08T11:59:57;0.30;;;0.30;;
80175;SDS011;75462;42.122;24.736;2024-03-08T12:02:30;0.30;;;0.30;;
80175;SDS011;75462;42.122;24.736;2024-03-08T12:04:56;0.30;;;0.30;;
80175;SDS011;75462;42.122;24.736;2024-03-08T12:07:24;0.30;;;0.30;;
80175;SDS011;75462;42.122;24.736;2024-03-08T12:12:43;0.30;;;0.30;;
80175;SDS011;75462;42.122;24.736;2024-03-08T12:15:10;0.30;;;0.30;;
80175;SDS011;75462;42.122;24.736;2024-03-08T12:17:36;0.30;;;0.30;;
80175;SDS011;75462;42.122;24.736;2024-03-08T12:20:37;0.20;;;0.20;;
80175;SDS011;75462;42.122;24.736;2024-03-08T12:22:56;0.30;;;0.30;;
80175;SDS011;75462;42.122;24.736;2024-03-08T12:25:32;0.20;;;0.20;;
80175;SDS011;75462;42.122;24.736;2024-03-08T12:28:08;0.20;;;0.20;;
80175;SDS011;75462;42.122;24.736;2024-03-08T12:30:49;0.20;;;0.20;;
80175;SDS011;75462;42.122;24.736;2024-03-08T12:33:21;0.15;;;0.15;;
80175;SDS011;75462;42.122;24.736;2024-03-08T12:35:50;0.13;;;0.13;;
80175;SDS011;75462;42.122;24.736;2024-03-08T12:38:20;0.20;;;0.20;;
80175;SDS011;75462;42.122;24.736;2024-03-08T12:40:55;0.15;;;0.15;;
80175;SDS011;75462;42.122;24.736;2024-03-08T12:43:25;0.20;;;0.20;;
80175;SDS011;75462;42.122;24.736;2024-03-08T12:45:51;0.20;;;0.20;;
80175;SDS011;75462;42.122;24.736;2024-03-08T12:48:17;0.20;;;0.20;;
80175;SDS011;75462;42.122;24.736;2024-03-08T12:50:45;0.20;;;0.20;;
80175;SDS011;75462;42.122;24.736;2024-03-08T12:53:13;0.30;;;0.30;;
80175;SDS011;75462;42.122;24.736;2024-03-08T12:55:39;0.20;;;0.20;;
80175;SDS011;75462;42.122;24.736;2024-03-08T12:58:05;0.30;;;0.30;;
80175;SDS011;75462;42.122;24.736;2024-03-08T13:00:33;0.30;;;0.30;;
80175;SDS011;75462;42.122;24.736;2024-03-08T13:03:01;0.30;;;0.30;;
80175;SDS011;75462;42.122;24.736;2024-03-08T13:05:27;0.30;;;0.30;;
80175;SDS011;75462;42.122;24.736;2024-03-08T13:07:54;0.20;;;0.20;;
80175;SDS011;75462;42.122;24.736;2024-03-08T13:10:20;0.30;;;0.30;;
80175;SDS011;75462;42.122;24.736;2024-03-08T13:12:47;0.30;;;0.30;;
80175;SDS011;75462;42.122;24.736;2024-03-08T13:15:13;0.30;;;0.30;;
80175;SDS011;75462;42.122;24.736;2024-03-08T13:17:48;0.30;;;0.30;;
80175;SDS011;75462;42.122;24.736;2024-03-08T13:20:14;0.30;;;0.30;;
80175;SDS011;75462;42.122;24.736;2024-03-08T13:22:45;0.30;;;0.30;;
80175;SDS011;75462;42.122;24.736;2024-03-08T13:25:12;0.30;;;0.30;;
80175;SDS011;75462;42.122;24.736;2024-03-08T13:27:39;0.30;;;0.30;;
80175;SDS011;75462;42.122;24.736;2024-03-08T13:30:07;0.30;;;0.30;;
80175;SDS011;75462;42.122;24.736;2024-03-08T13:32:38;0.20;;;0.20;;
80175;SDS011;75462;42.122;24.736;2024-03-08T13:35:12;0.20;;;0.20;;
80175;SDS011;75462;42.122;24.736;2024-03-08T13:37:39;0.20;;;0.20;;
80175;SDS011;75462;42.122;24.736;2024-03-08T13:40:05;0.20;;;0.20;;
80175;SDS011;75462;42.122;24.736;2024-03-08T13:42:36;0.10;;;0.10;;
80175;SDS011;75462;42.122;24.736;2024-03-08T13:45:04;0.20;;;0.20;;
80175;SDS011;75462;42.122;24.736;2024-03-08T13:47:35;0.10;;;0.10;;
80175;SDS011;75462;42.122;24.736;2024-03-08T13:50:02;0.10;;;0.10;;
80175;SDS011;75462;42.122;24.736;2024-03-08T13:52:29;0.10;;;0.10;;
80175;SDS011;75462;42.122;24.736;2024-03-08T13:54:55;0.10;;;0.10;;
80175;SDS011;75462;42.122;24.736;2024-03-08T13:57:21;0.10;;;0.10;;
80175;SDS011;75462;42.122;24.736;2024-03-08T13:59:47;0.10;;;0.10;;
80175;SDS011;75462;42.122;24.736;2024-03-08T14:02:16;0.10;;;0.10;;
80175;SDS011;75462;42.122;24.736;2024-03-08T14:04:42;0.17;;;0.17;;
80175;SDS011;75462;42.122;24.736;2024-03-08T14:07:08;0.15;;;0.15;;
80175;SDS011;75462;42.122;24.736;2024-03-08T14:09:36;0.20;;;0.20;;
80175;SDS011;75462;42.122;24.736;2024-03-08T14:12:08;0.20;;;0.20;;
80175;SDS011;75462;42.122;24.736;2024-03-08T14:14:34;0.30;;;0.30;;
80175;SDS011;75462;42.122;24.736;2024-03-08T14:17:01;0.30;;;0.30;;
80175;SDS011;75462;42.122;24.736;2024-03-08T14:19:27;0.30;;;0.30;;
80175;SDS011;75462;42.122;24.736;2024-03-08T14:21:53;0.20;;;0.20;;
80175;SDS011;75462;42.122;24.736;2024-03-08T14:24:19;0.30;;;0.30;;
80175;SDS011;75462;42.122;24.736;2024-03-08T14:26:45;0.30;;;0.30;;
80175;SDS011;75462;42.122;24.736;2024-03-08T14:29:16;0.30;;;0.30;;
80175;SDS011;75462;42.122;24.736;2024-03-08T14:31:43;0.30;;;0.30;;
80175;SDS011;75462;42.122;24.736;2024-03-08T14:34:10;0.30;;;0.30;;
80175;SDS011;75462;42.122;24.736;2024-03-08T14:36:36;0.30;;;0.30;;
80175;SDS011;75462;42.122;24.736;2024-03-08T14:39:03;0.30;;;0.30;;
80175;SDS011;75462;42.122;24.736;2024-03-08T14:41:28;0.20;;;0.20;;